Zhoushuizi Airport
ZYTL : now visible

Airfield :











YOU CAN JOIN US ON...

 
LOGIN :

Register | Disclaimer

   EN    FR    IT 

 









Legend :    VFR   Marginal VFR   IFR   Intensive IFR   Very Intensive IFR
Visi :
Ceiling :
>= 8 km
>= 3000ft
5 to 8 km
1000 to 3000 ft
1500m to 5 km
500 to 1000 ft
800 to 1500m
200 to 500 ft
< 800m
< 200 ft
Symbols :   Thunderstorms  Fog  Heavy snow  Heavy precipitations  Wind > 20 kt







- Airport Elevation : 107 ft
- IATA code : DLC


ZYTL - Zhoushuizi

CURRENT METAR :
  • 270230Z 33011G17MPS 300V010 9999 BKN026 18/09 Q1009 NOSIG

EXPIRED METARs :
  • 270200Z 34010G16MPS 300V020 9999 BKN026 17/09 Q1008 NOSIG
  • 270130Z 35010G16MPS 310V020 9999 BKN026 17/09 Q1008 NOSIG
  • 270100Z 34012G20MPS 310V020 9999 FEW010 BKN026 16/09 Q1008 NOSIG
  • 270030Z 34010G19MPS 310V020 9999 SCT010 BKN026 16/10 Q1007 NOSIG
  • 270000Z 34010G16MPS 290V020 9999 SCT010 BKN026 16/10 Q1007 NOSIG

TAF TAF ZYTL
Valid from the 27 at 00:00 until the 28 at 00:00 UTC


261912Z 2700/2724 35009G17MPS 8000 SCT033 TX21/2706Z TN14/2720Z
BECMG 2709/2710 26004G10MPS
ZYSH FIR / Asia



MET'MAP, your aeronautical weather chart ! - Copyright ORBIFLY December 2007 - Disclaimer

ORBIFLY MET'MAP TEAM :

Programming & Development : Alexandra Zaïnal
Concept & Development : Baudouin d'Aumeries
Co-Development & Prog : Marc-Olivier Méhu
Technical & hardware support : Manuel Goepfert

Contact : metmap@orbifly.com




SOURCES & CREDITS :

   NOAA       Earth
Advisory